sim
Sign-in with your pilot id or email,
or register
Callsign
Passwort

Schedule Details

Flight Number: DLH2157
Departure: Nuremberg Airport (EDDN) at 08:30
Arrival: Munich Airport (EDDM) at 09:10
Route: Lufthansa Passenger Schedule. Enter filed route here before submitting Pirep.

Weather Information
Getting current METAR information for EDDN 270920Z 18007KT 9999 BKN025 11/06 Q1004 NOSIG
Getting current METAR information for EDDM 270920Z 20008KT 150V250 9999 FEW035 12/04 Q1005 NOSIG

Schedule Frequency

Route Map